Time;durP1;ratioP1;P1;durP2;ratioP2;P2;SDS_P1;SDS_P2;PMS_P1;PMS_P2;Temp;Humidity;BMP_temperature;BMP_pressure;BME280_temperature;BME280_humidity;BME280_pressure;Samples;Min_cycle;Max_cycle;Signal;HPM_P1;HPM_P2
2021/11/12 00:03:03;;;;;;;;;;;7.00;99.90;;;;;;5014681;28;19912;-77
2021/11/12 00:13:43;;;;;;;;;;;6.60;99.90;;;;;;5014575;28;19923;-78
2021/11/12 00:16:09;;;;;;;;;;;6.90;99.90;;;;;;5014463;28;19975;-77
2021/11/12 00:18:35;;;;;;;;;;;7.00;99.90;;;;;;5014472;28;20370;-79
2021/11/12 00:21:02;;;;;;;;;;;6.90;99.90;;;;;;5014542;28;19905;-77
2021/11/12 00:23:28;;;;;;;;;;;6.60;99.90;;;;;;5014364;28;19984;-78
2021/11/12 00:25:54;;;;;;;;;;;6.70;99.90;;;;;;5014403;28;19905;-78
2021/11/12 00:28:22;;;;;;;;;;;6.70;99.90;;;;;;5014219;28;20342;-78
2021/11/12 00:33:49;;;;;;;;;;;6.30;99.90;;;;;;5014284;28;19905;-78
2021/11/12 00:38:42;;;;;;;;;;;6.40;99.90;;;;;;5013927;28;20285;-77
2021/11/12 00:43:54;;;;;;;;;;;6.30;99.90;;;;;;5014620;28;20350;-78
2021/11/12 00:46:41;;;;;;;;;;;6.10;99.90;;;;;;5014241;28;19956;-78
2021/11/12 00:49:11;;;;;;;;;;;6.00;99.90;;;;;;5012481;28;19952;-77
2021/11/12 00:51:44;;;;;;;;;;;6.20;99.90;;;;;;5014081;28;20290;-78
2021/11/12 00:54:12;;;;;;;;;;;6.10;99.90;;;;;;5014238;28;19909;-77
2021/11/12 00:56:38;;;;;;;;;;;6.10;99.90;;;;;;5012630;28;20016;-77
2021/11/12 00:59:05;;;;;;;;;;;6.20;99.90;;;;;;5014232;28;19906;-77
2021/11/12 01:01:31;;;;;;;;;;;6.40;99.90;;;;;;5012620;28;19906;-76
2021/11/12 01:03:57;;;;;;;;;;;6.60;99.90;;;;;;5013853;28;19905;-78
2021/11/12 01:06:23;;;;;;;;;;;6.40;99.90;;;;;;5014052;28;19905;-77
2021/11/12 01:08:49;;;;;;;;;;;6.30;99.90;;;;;;5012364;28;19920;-77
2021/11/12 01:11:16;;;;;;;;;;;6.30;99.90;;;;;;5013619;28;19913;-78
2021/11/12 01:13:42;;;;;;;;;;;6.20;99.90;;;;;;5013957;28;19905;-77
2021/11/12 01:16:08;;;;;;;;;;;6.20;99.90;;;;;;5013747;28;19906;-78
2021/11/12 01:18:36;;;;;;;;;;;6.10;99.90;;;;;;5013935;28;20255;-78
2021/11/12 01:21:03;;;;;;;;;;;6.00;99.90;;;;;;5012456;28;19956;-79
2021/11/12 01:23:29;;;;;;;;;;;6.10;99.90;;;;;;5013977;28;19912;-78
2021/11/12 01:25:54;;;;;;;;;;;6.30;99.90;;;;;;5012408;28;20008;-78
2021/11/12 01:28:20;;;;;;;;;;;6.20;99.90;;;;;;5014050;28;19935;-77
2021/11/12 01:30:45;;;;;;;;;;;6.10;99.90;;;;;;5012389;28;19906;-77
2021/11/12 01:33:11;;;;;;;;;;;6.30;99.90;;;;;;5013696;28;19906;-78
2021/11/12 01:35:37;;;;;;;;;;;6.60;99.90;;;;;;5013740;28;19913;-77
2021/11/12 01:38:04;;;;;;;;;;;6.40;99.90;;;;;;5013593;28;20358;-78
2021/11/12 01:40:30;;;;;;;;;;;6.40;99.90;;;;;;5013478;28;19909;-78
2021/11/12 01:43:04;;;;;;;;;;;6.40;99.90;;;;;;5013535;28;20301;-77
2021/11/12 01:45:40;;;;;;;;;;;6.20;99.90;;;;;;5016918;28;19921;-78
2021/11/12 01:50:46;;;;;;;;;;;6.20;99.90;;;;;;5016963;28;19906;-77
2021/11/12 01:53:13;;;;;;;;;;;6.40;99.90;;;;;;5017107;28;19906;-77
2021/11/12 02:00:42;;;;;;;;;;;6.30;99.90;;;;;;5016731;28;19999;-78
2021/11/12 02:03:09;;;;;;;;;;;6.50;99.90;;;;;;5016980;28;19975;-78
2021/11/12 02:05:35;;;;;;;;;;;6.70;99.90;;;;;;5015629;28;19944;-77
2021/11/12 02:08:01;;;;;;;;;;;6.60;99.90;;;;;;5016814;28;19953;-77
2021/11/12 02:10:26;;;;;;;;;;;6.40;99.90;;;;;;5016865;28;19906;-77
2021/11/12 02:13:05;;;;;;;;;;;6.20;99.90;;;;;;5015339;28;19921;-78
2021/11/12 02:15:32;;;;;;;;;;;6.40;99.90;;;;;;5015254;28;19905;-77
2021/11/12 02:18:03;;;;;;;;;;;6.50;99.90;;;;;;5016716;28;19928;-78
2021/11/12 02:20:38;;;;;;;;;;;6.60;99.90;;;;;;5016632;28;19916;-77
2021/11/12 02:23:05;;;;;;;;;;;6.70;99.90;;;;;;5016853;28;20314;-78
2021/11/12 02:25:42;;;;;;;;;;;6.60;99.90;;;;;;5016714;28;19909;-78
2021/11/12 02:28:15;;;;;;;;;;;6.60;99.90;;;;;;5016591;28;19949;-77
2021/11/12 02:30:43;;;;;;;;;;;6.70;99.90;;;;;;5016615;28;19929;-77
2021/11/12 02:33:08;;;;;;;;;;;6.80;99.90;;;;;;5016424;28;20385;-77
2021/11/12 02:35:35;;;;;;;;;;;6.60;99.90;;;;;;5016352;28;19906;-78
2021/11/12 02:38:03;;;;;;;;;;;6.60;99.90;;;;;;5016518;28;19905;-78
2021/11/12 02:40:29;;;;;;;;;;;6.80;99.90;;;;;;5016336;28;19906;-78
2021/11/12 02:42:54;;;;;;;;;;;6.70;99.90;;;;;;5016365;28;19913;-78
2021/11/12 02:45:20;;;;;;;;;;;6.80;99.90;;;;;;5016143;28;19928;-78
2021/11/12 02:47:46;;;;;;;;;;;6.90;99.90;;;;;;5016486;28;20286;-76
2021/11/12 02:50:12;;;;;;;;;;;6.70;99.90;;;;;;5016215;28;19951;-78
2021/11/12 02:52:39;;;;;;;;;;;6.40;99.90;;;;;;5016037;28;19910;-79
2021/11/12 02:55:05;;;;;;;;;;;6.40;99.90;;;;;;5015889;28;19905;-77
2021/11/12 02:57:34;;;;;;;;;;;6.30;99.90;;;;;;5015912;28;20277;-77
2021/11/12 03:00:00;;;;;;;;;;;6.50;99.90;;;;;;5014632;28;20258;-78
2021/11/12 03:02:26;;;;;;;;;;;6.50;99.90;;;;;;5015990;28;19992;-77
2021/11/12 03:04:51;;;;;;;;;;;6.70;99.90;;;;;;5015802;28;19906;-77
2021/11/12 03:07:17;;;;;;;;;;;6.60;99.90;;;;;;5016047;28;19945;-78
2021/11/12 03:09:43;;;;;;;;;;;6.30;99.90;;;;;;5015594;28;20324;-78
2021/11/12 03:12:08;;;;;;;;;;;6.30;99.90;;;;;;5015468;28;20345;-77
2021/11/12 03:14:35;;;;;;;;;;;6.20;99.90;;;;;;5015606;28;19912;-77
2021/11/12 03:17:02;;;;;;;;;;;6.10;99.90;;;;;;5015547;28;20385;-78
2021/11/12 03:19:28;;;;;;;;;;;6.20;99.90;;;;;;5015529;28;19905;-77
2021/11/12 03:22:00;;;;;;;;;;;6.10;99.90;;;;;;5015651;28;19905;-78
2021/11/12 03:24:30;;;;;;;;;;;6.20;99.90;;;;;;5015569;28;19905;-78
2021/11/12 04:00:06;;;;;;;;;;;5.30;99.90;;;;;;5014569;28;19948;-79
2021/11/12 05:03:09;;;;;;;;;;;5.40;99.90;;;;;;5013885;28;20480;-78
2021/11/12 05:12:03;;;;;;;;;;;5.30;99.90;;;;;;5014219;28;19909;-77
2021/11/12 05:13:57;;;;;;;;;;;5.20;99.90;;;;;;5016574;28;19960;-76
2021/11/12 05:56:36;;;;;;;;;;;5.20;99.90;;;;;;5017327;28;19911;-78
2021/11/12 05:59:01;;;;;;;;;;;5.10;99.90;;;;;;5017049;28;20280;-78
2021/11/12 06:01:28;;;;;;;;;;;5.00;99.90;;;;;;5017232;28;19937;-77
2021/11/12 06:03:53;;;;;;;;;;;5.00;99.90;;;;;;5017479;28;19905;-77
2021/11/12 06:06:19;;;;;;;;;;;5.10;99.90;;;;;;5016918;28;19915;-78
2021/11/12 06:08:44;;;;;;;;;;;5.20;99.90;;;;;;5016806;28;19909;-78
2021/11/12 06:11:10;;;;;;;;;;;5.10;99.90;;;;;;5015541;28;19956;-78
2021/11/12 06:13:36;;;;;;;;;;;5.20;99.90;;;;;;5016614;28;19918;-76
2021/11/12 06:16:01;;;;;;;;;;;5.20;99.90;;;;;;5016783;28;19933;-78
2021/11/12 06:18:27;;;;;;;;;;;5.30;99.90;;;;;;5016669;28;19912;-78
2021/11/12 06:20:53;;;;;;;;;;;5.50;99.90;;;;;;5016028;28;19971;-77
2021/11/12 06:23:19;;;;;;;;;;;5.40;99.90;;;;;;5016659;28;20372;-78
2021/11/12 06:25:44;;;;;;;;;;;5.40;99.90;;;;;;5016585;28;19995;-77
2021/11/12 06:28:10;;;;;;;;;;;5.70;99.90;;;;;;5016492;28;19909;-78
2021/11/12 06:30:36;;;;;;;;;;;5.70;99.90;;;;;;5015920;28;19912;-78
2021/11/12 06:33:01;;;;;;;;;;;5.60;99.90;;;;;;5015149;28;19905;-77
2021/11/12 06:35:27;;;;;;;;;;;5.70;99.90;;;;;;5016524;28;19905;-78
2021/11/12 06:37:55;;;;;;;;;;;5.70;99.90;;;;;;5015080;28;19905;-78
2021/11/12 06:40:21;;;;;;;;;;;5.70;99.90;;;;;;5016305;28;19941;-77
2021/11/12 06:51:01;;;;;;;;;;;5.50;99.90;;;;;;5016297;28;20392;-77
2021/11/12 06:53:27;;;;;;;;;;;5.30;99.90;;;;;;5016153;28;19905;-78
2021/11/12 06:55:56;;;;;;;;;;;5.50;99.90;;;;;;5016054;28;20289;-78
2021/11/12 06:58:22;;;;;;;;;;;5.90;99.90;;;;;;5014644;28;20062;-78
2021/11/12 07:00:48;;;;;;;;;;;6.10;99.90;;;;;;5014508;28;19906;-78
2021/11/12 07:03:13;;;;;;;;;;;6.00;99.90;;;;;;5016226;28;19948;-77
2021/11/12 07:05:39;;;;;;;;;;;6.10;99.90;;;;;;5014584;28;20006;-76
2021/11/12 07:08:04;;;;;;;;;;;6.20;99.90;;;;;;5015818;28;19906;-78
2021/11/12 07:10:30;;;;;;;;;;;6.20;99.90;;;;;;5015715;28;19905;-78
2021/11/12 07:12:55;;;;;;;;;;;6.40;99.90;;;;;;5015572;28;19949;-77
2021/11/12 07:15:21;;;;;;;;;;;6.40;99.90;;;;;;5014307;28;20309;-78
2021/11/12 07:17:47;;;;;;;;;;;6.20;99.90;;;;;;5015739;28;19913;-77
2021/11/12 07:20:12;;;;;;;;;;;6.20;99.90;;;;;;5015565;28;20301;-77
2021/11/12 07:22:38;;;;;;;;;;;6.10;99.90;;;;;;5015659;28;19952;-78
2021/11/12 07:25:05;;;;;;;;;;;6.10;99.90;;;;;;5015478;28;19906;-77
2021/11/12 07:27:31;;;;;;;;;;;6.20;99.90;;;;;;5015408;28;19992;-77
2021/11/12 07:29:57;;;;;;;;;;;6.30;99.90;;;;;;5015035;28;20052;-77
2021/11/12 07:32:23;;;;;;;;;;;6.10;99.90;;;;;;5015235;28;19909;-78
2021/11/12 07:34:51;;;;;;;;;;;6.20;99.90;;;;;;5015093;28;19906;-78
2021/11/12 07:37:17;;;;;;;;;;;6.20;99.90;;;;;;5015264;28;19906;-78
2021/11/12 07:47:23;;;;;;;;;;;6.50;99.90;;;;;;5023052;28;20375;-78
2021/11/12 07:49:50;;;;;;;;;;;6.50;99.90;;;;;;5015177;28;19935;-78
2021/11/12 07:52:16;;;;;;;;;;;6.60;99.90;;;;;;5015005;28;19916;-77
2021/11/12 07:54:42;;;;;;;;;;;6.70;99.90;;;;;;5015486;28;19960;-77
2021/11/12 07:57:09;;;;;;;;;;;6.80;99.90;;;;;;5014792;28;19906;-77
2021/11/12 07:59:35;;;;;;;;;;;6.80;99.90;;;;;;5014945;28;19912;-78
2021/11/12 08:02:01;;;;;;;;;;;6.90;99.90;;;;;;5014874;28;19913;-77
2021/11/12 08:04:27;;;;;;;;;;;7.00;99.90;;;;;;5013459;28;19933;-77
2021/11/12 08:06:55;;;;;;;;;;;7.10;99.90;;;;;;5013438;28;20365;-78
2021/11/12 08:09:25;;;;;;;;;;;7.20;99.90;;;;;;5014881;28;19915;-78
2021/11/12 08:11:55;;;;;;;;;;;7.30;99.90;;;;;;5013160;28;19967;-78
2021/11/12 08:14:36;;;;;;;;;;;7.20;99.90;;;;;;5014656;28;20330;-78
2021/11/12 08:19:46;;;;;;;;;;;7.30;99.90;;;;;;5014278;28;19905;-77
2021/11/12 08:22:20;;;;;;;;;;;7.40;99.90;;;;;;5014441;28;19988;-78
2021/11/12 08:38:39;;;;;;;;;;;8.30;99.90;;;;;;5014155;28;20032;-78
2021/11/12 08:41:18;;;;;;;;;;;8.30;99.90;;;;;;5014333;28;20279;-77
2021/11/12 08:43:57;;;;;;;;;;;8.30;99.90;;;;;;5012919;28;20429;-77
2021/11/12 08:49:09;;;;;;;;;;;8.40;99.90;;;;;;5013764;28;19914;-78
2021/11/12 08:51:37;;;;;;;;;;;8.30;99.90;;;;;;5014106;28;19929;-78
2021/11/12 08:54:04;;;;;;;;;;;8.20;99.90;;;;;;5014290;28;20327;-78
2021/11/12 08:56:30;;;;;;;;;;;8.20;99.90;;;;;;5014152;28;19905;-77
2021/11/12 08:58:56;;;;;;;;;;;8.30;99.90;;;;;;5013787;28;19991;-78
2021/11/12 09:01:22;;;;;;;;;;;8.40;99.90;;;;;;5012629;28;20316;-78
2021/11/12 09:03:48;;;;;;;;;;;8.40;99.90;;;;;;5013909;28;19940;-78
2021/11/12 09:06:15;;;;;;;;;;;8.10;99.90;;;;;;5013974;28;19995;-78
2021/11/12 09:08:41;;;;;;;;;;;8.30;99.90;;;;;;5013745;28;19927;-78
2021/11/12 09:11:07;;;;;;;;;;;8.50;99.90;;;;;;5013653;28;19913;-77
2021/11/12 09:16:13;;;;;;;;;;;8.60;99.90;;;;;;5013435;28;20370;-77
2021/11/12 09:18:40;;;;;;;;;;;8.70;99.90;;;;;;5012483;28;19960;-78
2021/11/12 09:21:06;;;;;;;;;;;8.90;99.90;;;;;;5013749;28;19905;-78
2021/11/12 09:23:54;;;;;;;;;;;9.30;99.90;;;;;;5013464;28;20374;-78
2021/11/12 09:26:22;;;;;;;;;;;9.50;99.90;;;;;;5012383;28;19916;-78
2021/11/12 09:28:48;;;;;;;;;;;9.70;99.90;;;;;;5012780;28;19917;-78
2021/11/12 09:31:15;;;;;;;;;;;10.10;99.90;;;;;;5013718;28;19905;-79
2021/11/12 09:33:41;;;;;;;;;;;10.50;99.90;;;;;;5013805;28;19912;-78
2021/11/12 09:36:08;;;;;;;;;;;11.00;99.90;;;;;;5012316;28;20285;-79
2021/11/12 09:38:34;;;;;;;;;;;11.50;99.90;;;;;;5014112;28;19912;-78
2021/11/12 09:41:00;;;;;;;;;;;12.20;99.90;;;;;;5013782;28;20262;-77
2021/11/12 09:43:26;;;;;;;;;;;12.80;99.90;;;;;;5014086;28;19905;-79
2021/11/12 09:45:52;;;;;;;;;;;13.10;99.90;;;;;;5013561;28;19910;-78
2021/11/12 09:48:18;;;;;;;;;;;13.10;99.90;;;;;;5013395;28;20444;-78
2021/11/12 09:50:44;;;;;;;;;;;12.90;99.90;;;;;;5013528;28;19909;-78
2021/11/12 09:53:09;;;;;;;;;;;13.20;99.90;;;;;;5013675;28;20263;-78
2021/11/12 09:55:35;;;;;;;;;;;13.30;99.90;;;;;;5012220;28;20008;-79
2021/11/12 09:58:01;;;;;;;;;;;13.50;99.90;;;;;;5013552;28;20326;-79
2021/11/12 10:00:28;;;;;;;;;;;13.50;99.90;;;;;;5013781;28;19971;-79
2021/11/12 10:02:54;;;;;;;;;;;13.40;99.90;;;;;;5013465;28;20285;-78
2021/11/12 10:05:31;;;;;;;;;;;13.30;99.90;;;;;;5014707;28;19905;-77
2021/11/12 10:07:57;;;;;;;;;;;13.40;99.90;;;;;;5016850;28;19912;-78
2021/11/12 10:10:24;;;;;;;;;;;13.20;99.90;;;;;;5017074;28;20292;-78
2021/11/12 10:12:51;;;;;;;;;;;12.90;99.90;;;;;;5016682;28;19927;-78
2021/11/12 10:15:25;;;;;;;;;;;12.10;99.90;;;;;;5016981;28;20413;-78
2021/11/12 10:17:51;;;;;;;;;;;12.40;99.90;;;;;;5016872;28;19952;-77
2021/11/12 10:20:18;;;;;;;;;;;11.80;99.90;;;;;;5016689;28;19905;-79
2021/11/12 10:22:45;;;;;;;;;;;12.10;99.90;;;;;;5015348;28;20348;-80
2021/11/12 10:25:11;;;;;;;;;;;12.40;99.90;;;;;;5016616;28;19906;-78
2021/11/12 10:27:38;;;;;;;;;;;12.60;99.90;;;;;;5016727;28;19912;-79
2021/11/12 10:30:14;;;;;;;;;;;12.80;99.90;;;;;;5016413;28;19909;-79
2021/11/12 10:32:43;;;;;;;;;;;13.40;99.90;;;;;;5014906;28;19905;-78
2021/11/12 10:35:18;;;;;;;;;;;14.00;99.90;;;;;;5016559;28;20374;-78
2021/11/12 10:37:43;;;;;;;;;;;13.60;99.90;;;;;;5016457;28;20389;-80
2021/11/12 10:40:14;;;;;;;;;;;13.50;99.90;;;;;;5016214;28;19906;-79
2021/11/12 10:42:41;;;;;;;;;;;13.50;99.90;;;;;;5016417;28;20004;-79
2021/11/12 10:45:08;;;;;;;;;;;13.20;99.90;;;;;;5016321;28;19906;-79
2021/11/12 10:47:35;;;;;;;;;;;12.90;99.90;;;;;;5016088;28;19906;-79
2021/11/12 10:50:04;;;;;;;;;;;12.90;99.90;;;;;;5015900;28;19913;-79
2021/11/12 10:52:31;;;;;;;;;;;13.30;99.90;;;;;;5015918;28;19909;-78
2021/11/12 10:55:08;;;;;;;;;;;13.20;99.90;;;;;;5015916;28;20271;-79
2021/11/12 10:57:35;;;;;;;;;;;13.50;99.90;;;;;;5015923;28;19933;-79
2021/11/12 11:00:04;;;;;;;;;;;13.60;99.90;;;;;;5015866;28;19905;-79
2021/11/12 11:02:39;;;;;;;;;;;13.40;99.90;;;;;;5015985;28;19920;-79
2021/11/12 11:05:08;;;;;;;;;;;13.70;99.90;;;;;;5015755;28;19996;-79
2021/11/12 11:07:34;;;;;;;;;;;13.80;99.90;;;;;;5015708;28;19947;-79
2021/11/12 11:10:03;;;;;;;;;;;13.80;99.90;;;;;;5015633;28;19956;-79
2021/11/12 11:12:39;;;;;;;;;;;14.20;99.90;;;;;;5015384;28;19917;-79
2021/11/12 11:15:16;;;;;;;;;;;14.00;99.90;;;;;;5015848;28;19999;-79
2021/11/12 11:17:47;;;;;;;;;;;14.20;99.90;;;;;;5014266;28;19905;-79
2021/11/12 11:20:16;;;;;;;;;;;13.80;99.90;;;;;;5015424;28;19970;-79
2021/11/12 11:22:55;;;;;;;;;;;13.70;99.90;;;;;;5015366;28;19909;-79
2021/11/12 11:25:21;;;;;;;;;;;13.40;99.90;;;;;;5015504;28;19909;-79
2021/11/12 11:27:47;;;;;;;;;;;13.00;99.90;;;;;;5014115;28;20276;-79
2021/11/12 11:30:13;;;;;;;;;;;13.00;99.90;;;;;;5015251;28;19916;-79
2021/11/12 11:32:40;;;;;;;;;;;13.10;99.90;;;;;;5015329;28;19912;-79
2021/11/12 11:35:05;;;;;;;;;;;13.10;99.90;;;;;;5015303;28;19912;-79
2021/11/12 11:37:33;;;;;;;;;;;13.20;99.90;;;;;;5015275;28;19987;-78
2021/11/12 11:39:59;;;;;;;;;;;13.00;99.90;;;;;;5015292;28;19913;-79
2021/11/12 11:42:24;;;;;;;;;;;13.20;99.90;;;;;;5015205;28;19905;-78
2021/11/12 11:44:50;;;;;;;;;;;13.30;99.90;;;;;;5015029;28;20424;-79
2021/11/12 11:47:20;;;;;;;;;;;13.30;99.90;;;;;;5015298;28;19905;-79
2021/11/12 11:49:50;;;;;;;;;;;13.20;99.90;;;;;;5015022;28;19909;-79
2021/11/12 11:52:23;;;;;;;;;;;13.10;99.90;;;;;;5014876;28;19909;-79
2021/11/12 11:54:49;;;;;;;;;;;13.30;99.90;;;;;;5015114;28;20362;-79
2021/11/12 11:57:16;;;;;;;;;;;13.40;99.90;;;;;;5013457;28;19906;-78
2021/11/12 11:59:43;;;;;;;;;;;13.80;99.90;;;;;;5013489;28;19940;-79
2021/11/12 12:02:14;;;;;;;;;;;14.10;99.90;;;;;;5014877;28;19905;-79
2021/11/12 12:04:43;;;;;;;;;;;14.00;99.90;;;;;;5014713;28;20391;-79
2021/11/12 12:07:14;;;;;;;;;;;13.80;99.90;;;;;;5014646;28;19974;-80
2021/11/12 12:09:40;;;;;;;;;;;13.80;99.90;;;;;;5014643;28;19917;-79
2021/11/12 12:12:06;;;;;;;;;;;13.70;99.90;;;;;;5014322;28;20366;-79
2021/11/12 12:14:32;;;;;;;;;;;13.70;99.90;;;;;;5014479;28;19905;-79
2021/11/12 12:17:10;;;;;;;;;;;13.70;99.90;;;;;;5014488;28;20321;-79
2021/11/12 12:19:48;;;;;;;;;;;13.70;99.90;;;;;;5012862;28;19911;-79
2021/11/12 13:22:01;;;;;;;;;;;13.80;99.90;;;;;;5013450;28;20390;-78
2021/11/12 13:27:06;;;;;;;;;;;13.70;99.90;;;;;;5013617;28;19906;-79
2021/11/12 13:29:33;;;;;;;;;;;13.60;99.90;;;;;;5013705;28;19995;-79
2021/11/12 13:32:03;;;;;;;;;;;13.70;99.90;;;;;;5013527;28;19905;-78
2021/11/12 13:34:42;;;;;;;;;;;13.50;99.90;;;;;;5012164;28;20013;-78
2021/11/12 13:37:34;;;;;;;;;;;13.60;99.90;;;;;;5013511;28;19953;-79
2021/11/12 13:40:07;;;;;;;;;;;13.60;99.90;;;;;;5013999;28;19960;-78
2021/11/12 13:42:43;;;;;;;;;;;13.60;99.90;;;;;;5017265;28;20020;-79
2021/11/12 13:45:13;;;;;;;;;;;13.70;99.90;;;;;;5017212;28;19931;-79
2021/11/12 13:47:38;;;;;;;;;;;13.90;99.90;;;;;;5017246;28;19948;-79
2021/11/12 13:50:04;;;;;;;;;;;14.00;99.90;;;;;;5017165;28;20317;-79
2021/11/12 13:52:33;;;;;;;;;;;14.20;99.90;;;;;;5017352;28;19996;-78
2021/11/12 13:55:13;;;;;;;;;;;14.30;99.90;;;;;;5017451;28;20292;-78
2021/11/12 13:57:39;;;;;;;;;;;14.30;99.90;;;;;;5017142;28;19905;-79
2021/11/12 14:00:10;;;;;;;;;;;14.50;99.90;;;;;;5016923;28;19916;-79
2021/11/12 14:02:54;;;;;;;;;;;14.60;99.90;;;;;;5017117;28;19960;-80
2021/11/12 14:05:20;;;;;;;;;;;14.70;99.90;;;;;;5016860;28;19906;-78
2021/11/12 14:07:46;;;;;;;;;;;14.70;99.90;;;;;;5016905;28;20317;-79
2021/11/12 14:10:13;;;;;;;;;;;14.80;99.90;;;;;;5016791;28;19905;-79
2021/11/12 14:12:59;;;;;;;;;;;15.20;99.90;;;;;;5016469;28;19925;-79
2021/11/12 14:15:29;;;;;;;;;;;15.40;99.90;;;;;;5016587;28;19912;-78
2021/11/12 14:23:51;;;;;;;;;;;15.30;99.90;;;;;;5016693;28;19955;-78
2021/11/12 14:26:25;;;;;;;;;;;14.90;99.90;;;;;;5016488;28;19905;-79
2021/11/12 14:29:05;;;;;;;;;;;14.90;99.90;;;;;;5016673;28;19913;-79
2021/11/12 14:36:49;;;;;;;;;;;14.70;99.90;;;;;;5016125;28;19905;-79
2021/11/12 14:42:23;;;;;;;;;;;14.70;99.90;;;;;;5016387;28;19906;-79
2021/11/12 14:45:03;;;;;;;;;;;14.70;99.90;;;;;;5016057;28;19916;-79
2021/11/12 14:47:40;;;;;;;;;;;14.70;99.90;;;;;;5016331;28;19981;-79
2021/11/12 14:50:43;;;;;;;;;;;14.70;99.90;;;;;;5014537;28;19906;-79
2021/11/12 14:53:18;;;;;;;;;;;14.70;99.90;;;;;;5014463;28;20000;-80
2021/11/12 14:55:45;;;;;;;;;;;14.60;99.90;;;;;;5016126;28;19913;-79
2021/11/12 14:58:15;;;;;;;;;;;14.70;99.90;;;;;;5015870;28;20007;-79
2021/11/12 15:00:41;;;;;;;;;;;14.50;99.90;;;;;;5015820;28;19905;-79
2021/11/12 15:03:07;;;;;;;;;;;14.50;99.90;;;;;;5016178;28;19945;-79
2021/11/12 15:05:33;;;;;;;;;;;14.50;99.90;;;;;;5015777;28;19905;-79
2021/11/12 15:08:06;;;;;;;;;;;14.50;99.90;;;;;;5015716;28;19906;-79
2021/11/12 15:10:33;;;;;;;;;;;14.50;99.90;;;;;;5015853;28;19905;-79
2021/11/12 15:12:59;;;;;;;;;;;14.50;99.90;;;;;;5015421;28;20063;-79
2021/11/12 15:15:25;;;;;;;;;;;14.40;99.90;;;;;;5014250;28;19906;-79
2021/11/12 15:17:53;;;;;;;;;;;14.50;99.90;;;;;;5014254;28;19913;-79
2021/11/12 15:20:19;;;;;;;;;;;14.50;99.90;;;;;;5014107;28;19913;-79
2021/11/12 15:23:20;;;;;;;;;;;14.40;99.90;;;;;;5015407;28;19905;-79
2021/11/12 15:33:33;;;;;;;;;;;14.30;99.90;;;;;;5015214;28;19909;-79
2021/11/12 15:36:03;;;;;;;;;;;14.30;99.90;;;;;;5015385;28;20282;-79
2021/11/12 15:39:07;;;;;;;;;;;14.40;99.90;;;;;;5013770;28;20423;-78
2021/11/12 15:44:19;;;;;;;;;;;14.20;99.90;;;;;;5014972;28;19912;-79
2021/11/12 15:46:47;;;;;;;;;;;14.30;99.90;;;;;;5015036;28;19912;-79
2021/11/12 15:49:22;;;;;;;;;;;14.40;99.90;;;;;;5014983;28;19906;-79
2021/11/12 15:52:04;;;;;;;;;;;14.40;99.90;;;;;;5015232;28;20362;-79
2021/11/12 15:57:25;;;;;;;;;;;14.40;99.90;;;;;;5014768;28;19906;-78
2021/11/12 16:10:44;;;;;;;;;;;14.20;99.90;;;;;;5014380;28;19905;-79
2021/11/12 16:26:18;;;;;;;;;;;14.00;99.90;;;;;;5014655;28;20358;-79
2021/11/12 16:31:37;;;;;;;;;;;14.00;99.90;;;;;;5013149;28;19959;-79
2021/11/12 16:34:13;;;;;;;;;;;14.00;99.90;;;;;;5014337;28;19956;-80
2021/11/12 16:37:00;;;;;;;;;;;13.80;99.90;;;;;;5012645;28;19906;-80
2021/11/12 16:39:30;;;;;;;;;;;13.80;99.90;;;;;;5012584;28;19963;-79
2021/11/12 16:42:44;;;;;;;;;;;13.90;99.90;;;;;;5012844;28;19914;-80
2021/11/12 16:44:53;;;;;;;;;;;13.90;99.90;;;;;;5016678;28;20001;-78
2021/11/12 16:47:29;;;;;;;;;;;13.90;99.90;;;;;;5012489;28;19905;-79
2021/11/12 17:02:54;;;;;;;;;;;13.90;99.90;;;;;;5014113;28;19909;-79
2021/11/12 17:47:35;;;;;;;;;;;13.70;99.90;;;;;;5017254;28;19992;-79
2021/11/12 18:03:16;;;;;;;;;;;13.60;99.90;;;;;;5016756;28;19971;-78
2021/11/12 18:06:09;;;;;;;;;;;13.60;99.90;;;;;;5015380;28;19996;-78
2021/11/12 21:45:33;;;;;;;;;;;12.80;99.90;;;;;;5013199;28;19916;-76
2021/11/12 21:47:33;;;;;;;;;;;12.90;99.90;;;;;;5015412;28;19905;-77
2021/11/12 21:49:58;;;;;;;;;;;12.80;99.90;;;;;;5013411;28;19905;-77
2021/11/12 21:52:24;;;;;;;;;;;12.80;99.90;;;;;;5013792;28;19956;-78
2021/11/12 21:54:50;;;;;;;;;;;12.70;99.90;;;;;;5013688;28;19909;-78
2021/11/12 21:57:15;;;;;;;;;;;12.70;99.90;;;;;;5012046;28;20333;-78
2021/11/12 21:59:41;;;;;;;;;;;12.80;99.90;;;;;;5011992;28;19960;-77
2021/11/12 22:02:08;;;;;;;;;;;12.80;99.90;;;;;;5014642;28;20365;-77
2021/11/12 22:04:34;;;;;;;;;;;12.80;99.90;;;;;;5017122;28;19905;-77
2021/11/12 22:06:59;;;;;;;;;;;12.80;99.90;;;;;;5017172;28;19921;-77
2021/11/12 22:09:25;;;;;;;;;;;12.70;99.90;;;;;;5016967;28;19912;-78
2021/11/12 22:11:51;;;;;;;;;;;12.70;99.90;;;;;;5016626;28;20012;-78
2021/11/12 22:14:17;;;;;;;;;;;12.70;99.90;;;;;;5016938;28;19955;-77
2021/11/12 22:16:42;;;;;;;;;;;12.70;99.90;;;;;;5016870;28;19947;-76
2021/11/12 22:19:08;;;;;;;;;;;12.70;99.90;;;;;;5016726;28;19935;-78
2021/11/12 22:21:34;;;;;;;;;;;12.70;99.90;;;;;;5017079;28;19906;-77
2021/11/12 22:23:59;;;;;;;;;;;12.70;99.90;;;;;;5016587;28;19906;-78
2021/11/12 22:26:25;;;;;;;;;;;12.70;99.90;;;;;;5016577;28;19905;-77
2021/11/12 22:28:51;;;;;;;;;;;12.70;99.90;;;;;;5016521;28;19909;-78
2021/11/12 22:31:17;;;;;;;;;;;12.70;99.90;;;;;;5016442;28;19960;-77
2021/11/12 22:33:43;;;;;;;;;;;12.70;99.90;;;;;;5016445;28;19909;-77
2021/11/12 22:36:13;;;;;;;;;;;12.70;99.90;;;;;;5016754;28;19905;-78
2021/11/12 22:38:39;;;;;;;;;;;12.70;99.90;;;;;;5014721;28;19906;-79
2021/11/12 22:41:05;;;;;;;;;;;12.70;99.90;;;;;;5016398;28;19996;-78
2021/11/12 22:43:31;;;;;;;;;;;12.70;99.90;;;;;;5016484;28;19966;-77
2021/11/12 22:45:57;;;;;;;;;;;12.70;99.90;;;;;;5016363;28;20358;-77
2021/11/12 22:48:23;;;;;;;;;;;12.70;99.90;;;;;;5016107;28;19912;-78
2021/11/12 22:50:49;;;;;;;;;;;12.60;99.90;;;;;;5016268;28;19913;-78
2021/11/12 22:53:14;;;;;;;;;;;12.60;99.90;;;;;;5016086;28;19905;-77
2021/11/12 22:55:40;;;;;;;;;;;12.60;99.90;;;;;;5016019;28;19912;-77
2021/11/12 22:58:06;;;;;;;;;;;12.60;99.90;;;;;;5014714;28;19905;-78
2021/11/12 23:00:31;;;;;;;;;;;12.60;99.90;;;;;;5016015;28;20048;-78
2021/11/12 23:02:57;;;;;;;;;;;12.70;99.90;;;;;;5015890;28;19905;-78
2021/11/12 23:05:23;;;;;;;;;;;12.70;99.90;;;;;;5015892;28;19912;-78
2021/11/12 23:07:49;;;;;;;;;;;12.50;99.90;;;;;;5015813;28;20301;-76
2021/11/12 23:10:15;;;;;;;;;;;12.50;99.90;;;;;;5015784;28;19944;-78
2021/11/12 23:12:41;;;;;;;;;;;12.60;99.90;;;;;;5015269;28;19925;-77
2021/11/12 23:15:06;;;;;;;;;;;12.50;99.90;;;;;;5015697;28;19911;-77
2021/11/12 23:17:32;;;;;;;;;;;12.40;99.90;;;;;;5015595;28;19988;-78
2021/11/12 23:19:58;;;;;;;;;;;12.50;99.90;;;;;;5015495;28;19913;-78
2021/11/12 23:22:23;;;;;;;;;;;12.50;99.90;;;;;;5015586;28;19951;-77
2021/11/12 23:24:49;;;;;;;;;;;12.50;99.90;;;;;;5015533;28;19905;-78
2021/11/12 23:27:15;;;;;;;;;;;12.50;99.90;;;;;;5015410;28;20373;-77
2021/11/12 23:29:41;;;;;;;;;;;12.50;99.90;;;;;;5015334;28;19917;-78
2021/11/12 23:32:06;;;;;;;;;;;12.50;99.90;;;;;;5015341;28;19905;-77
2021/11/12 23:34:32;;;;;;;;;;;12.50;99.90;;;;;;5015419;28;19909;-77
2021/11/12 23:36:58;;;;;;;;;;;12.50;99.90;;;;;;5015255;28;19995;-76
2021/11/12 23:39:24;;;;;;;;;;;12.40;99.90;;;;;;5013663;28;19943;-77
2021/11/12 23:41:49;;;;;;;;;;;12.40;99.90;;;;;;5015067;28;19913;-78
2021/11/12 23:44:15;;;;;;;;;;;12.40;99.90;;;;;;5015085;28;19905;-78
2021/11/12 23:46:41;;;;;;;;;;;12.50;99.90;;;;;;5015025;28;20357;-77
2021/11/12 23:49:06;;;;;;;;;;;12.40;99.90;;;;;;5014996;28;19912;-78
2021/11/12 23:51:32;;;;;;;;;;;12.40;99.90;;;;;;5013666;28;19911;-77
2021/11/12 23:53:58;;;;;;;;;;;12.30;99.90;;;;;;5015136;28;19906;-77
2021/11/12 23:56:24;;;;;;;;;;;12.30;99.90;;;;;;5014880;28;19955;-77
2021/11/12 23:58:49;;;;;;;;;;;12.40;99.90;;;;;;5013420;28;19913;-78
